Time;durP1;ratioP1;P1;durP2;ratioP2;P2;SDS_P1;SDS_P2;PMS_P1;PMS_P2;Temp;Humidity;BMP_temperature;BMP_pressure;BME280_temperature;BME280_humidity;BME280_pressure;Samples;Min_cycle;Max_cycle;Signal;HPM_P1;HPM_P2
2021/09/04 00:00:38;;;;;;;0.30;0.30;;;;;;;17.57;63.32;102089.97;5003828;28;20048;-89
2021/09/04 00:03:04;;;;;;;0.15;0.15;;;;;;;17.55;63.38;102082.88;4996449;28;20022;-93
2021/09/04 00:05:31;;;;;;;0.35;0.35;;;;;;;17.55;63.14;102080.22;4994936;28;20093;-95
2021/09/04 00:07:57;;;;;;;0.05;0.05;;;;;;;17.53;62.79;102088.28;4994622;28;20161;-94
2021/09/04 00:10:24;;;;;;;0.32;0.32;;;;;;;17.52;62.93;102080.28;4994547;28;20037;-92
2021/09/04 00:12:50;;;;;;;0.40;0.40;;;;;;;17.48;63.19;102084.00;4995244;28;20034;-94
2021/09/04 00:15:17;;;;;;;0.40;0.40;;;;;;;17.43;62.85;102082.34;4994963;28;20028;-94
2021/09/04 00:17:43;;;;;;;0.63;0.63;;;;;;;17.41;63.46;102081.47;4995437;28;20030;-89
2021/09/04 00:20:11;;;;;;;0.40;0.40;;;;;;;17.42;63.23;102085.03;4995506;28;20026;-94
2021/09/04 00:22:38;;;;;;;1.27;1.20;;;;;;;17.39;63.34;102080.63;4995251;28;20034;-94
2021/09/04 00:25:14;;;;;;;0.20;0.20;;;;;;;17.40;63.34;102085.09;4993825;28;20030;-94
2021/09/04 00:27:47;;;;;;;1.20;1.10;;;;;;;17.32;63.26;102088.91;4991232;28;20041;-86
2021/09/04 00:30:20;;;;;;;5.45;0.65;;;;;;;17.28;63.80;102090.78;4993832;28;20094;-93
2021/09/04 00:32:51;;;;;;;0.25;0.25;;;;;;;17.29;63.60;102080.03;4992267;28;20026;-93
2021/09/04 00:35:18;;;;;;;0.47;0.47;;;;;;;17.24;63.99;102078.41;4993496;28;20038;-94
2021/09/04 00:37:44;;;;;;;1.17;1.10;;;;;;;17.26;63.58;102088.16;4994104;28;20481;-93
2021/09/04 00:40:11;;;;;;;0.10;0.10;;;;;;;17.27;63.79;102072.94;4994299;28;20454;-95
2021/09/04 00:42:38;;;;;;;0.90;0.90;;;;;;;17.24;63.63;102081.09;4994107;28;20030;-95
2021/09/04 00:45:05;;;;;;;0.03;0.03;;;;;;;17.22;63.58;102077.56;4993269;28;20026;-93
2021/09/04 00:47:31;;;;;;;0.85;0.85;;;;;;;17.21;63.30;102070.44;4992645;28;20041;-93
2021/09/04 00:49:58;;;;;;;0.82;0.80;;;;;;;17.19;63.38;102078.53;4994152;28;20030;-94
2021/09/04 00:52:24;;;;;;;0.10;0.10;;;;;;;17.19;62.86;102072.31;4994412;28;20037;-95
2021/09/04 00:54:51;;;;;;;0.20;0.20;;;;;;;17.18;63.27;102060.69;4990889;28;20041;-93
2021/09/04 00:57:17;;;;;;;0.13;0.13;;;;;;;17.16;63.26;102067.91;4994471;28;20061;-94
2021/09/04 00:59:44;;;;;;;0.17;0.17;;;;;;;17.16;63.51;102064.34;4994372;28;20477;-94
2021/09/04 01:02:11;;;;;;;0.98;0.95;;;;;;;17.11;63.19;102070.72;4994164;28;20086;-95
2021/09/04 01:04:37;;;;;;;0.75;0.75;;;;;;;17.11;63.42;102068.03;4994305;28;20031;-93
2021/09/04 01:07:04;;;;;;;0.10;0.10;;;;;;;17.07;63.62;102062.81;4994357;28;20034;-91
2021/09/04 01:09:30;;;;;;;0.20;0.20;;;;;;;17.06;63.47;102066.41;4992979;28;20073;-94
2021/09/04 01:11:57;;;;;;;0.10;0.10;;;;;;;16.99;63.94;102060.34;4998755;28;20031;-94
2021/09/04 01:14:24;;;;;;;0.57;0.57;;;;;;;16.98;63.35;102055.91;4993524;28;20030;-93
2021/09/04 01:16:50;;;;;;;0.30;0.30;;;;;;;16.94;63.72;102055.09;4993416;28;20035;-94
2021/09/04 01:19:16;;;;;;;0.10;0.10;;;;;;;16.92;63.28;102056.97;4993586;28;20027;-91
2021/09/04 01:21:43;;;;;;;0.00;0.00;;;;;;;16.92;63.18;102059.66;4993937;28;20036;-92
2021/09/04 01:24:09;;;;;;;0.10;0.10;;;;;;;16.90;63.74;102056.09;4994106;28;20473;-92
2021/09/04 01:26:36;;;;;;;0.20;0.20;;;;;;;16.88;63.47;102052.56;4993470;28;20177;-96
2021/09/04 01:29:03;;;;;;;0.10;0.10;;;;;;;16.84;63.93;102055.41;4994153;28;20026;-94
2021/09/04 01:31:30;;;;;;;0.20;0.17;;;;;;;16.82;63.63;102052.72;4994276;28;20033;-95
2021/09/04 01:33:57;;;;;;;1.20;0.60;;;;;;;16.81;63.73;102057.22;4994669;28;20240;-94
2021/09/04 01:36:29;;;;;;;0.20;0.20;;;;;;;16.82;63.77;102048.28;4993938;28;20473;-94
2021/09/04 01:38:55;;;;;;;;;;;;;;;16.92;63.27;102045.38;4994500;28;20125;-95
2021/09/04 01:41:22;;;;;;;0.00;0.00;;;;;;;16.76;63.66;102051.13;4992701;28;19922;-94
2021/09/04 01:43:49;;;;;;;0.10;0.10;;;;;;;16.74;64.13;102052.94;4994644;28;20035;-94
2021/09/04 01:46:16;;;;;;;0.40;0.40;;;;;;;16.70;63.99;102048.59;4995260;28;20359;-93
2021/09/04 01:48:42;;;;;;;0.20;0.20;;;;;;;16.74;63.57;102052.06;4994976;28;20053;-95
2021/09/04 01:51:08;;;;;;;0.20;0.20;;;;;;;16.71;64.01;102054.81;4995171;28;20077;-94
2021/09/04 01:53:35;;;;;;;0.20;0.20;;;;;;;16.68;64.11;102050.44;4994897;28;20026;-95
2021/09/04 01:56:02;;;;;;;0.05;0.05;;;;;;;16.68;63.76;102045.06;4994338;28;20109;-95
2021/09/04 01:58:28;;;;;;;0.43;0.43;;;;;;;16.67;63.75;102043.31;4995052;28;20034;-95
2021/09/04 02:00:54;;;;;;;0.17;0.17;;;;;;;16.65;64.06;102029.97;4995174;28;20030;-93
2021/09/04 02:03:21;;;;;;;0.10;0.10;;;;;;;16.66;64.26;102036.22;4995087;28;20026;-96
2021/09/04 02:05:47;;;;;;;0.57;0.45;;;;;;;16.63;64.31;102041.66;4994817;28;20042;-94
2021/09/04 02:08:14;;;;;;;0.10;0.10;;;;;;;16.62;63.91;102029.19;4994521;28;20035;-94
2021/09/04 02:10:40;;;;;;;0.10;0.10;;;;;;;16.61;63.67;102039.03;4994145;28;20031;-91
2021/09/04 02:13:06;;;;;;;0.20;0.20;;;;;;;16.60;63.72;102047.09;4995396;28;20038;-93
2021/09/04 02:15:35;;;;;;;0.10;0.10;;;;;;;16.56;63.71;102040.94;4997656;28;20552;-93
2021/09/04 02:18:33;;;;;;;;;;;;;;;;;;;;;
2021/09/04 02:24:47;;;;;;;0.70;0.70;;;;;;;16.51;64.60;102029.50;4955862;29;20047;-91
2021/09/04 02:27:41;;;;;;;0.28;0.28;;;;;;;16.55;63.73;102032.94;4961899;28;20042;-91
2021/09/04 02:30:18;;;;;;;0.30;0.30;;;;;;;16.47;63.95;102026.00;4977080;28;20035;-90
2021/09/04 02:33:18;;;;;;;;;;;;;;;;;;;;;
2021/09/04 02:36:29;;;;;;;0.50;0.50;;;;;;;16.49;64.51;102028.63;4898368;29;20047;-93
2021/09/04 02:39:49;;;;;;;;;;;;;;;;;;;;;
2021/09/04 02:47:45;;;;;;;;;;;;;;;16.53;63.25;102040.13;4949491;28;20505;-92
2021/09/04 02:49:32;;;;;;;0.15;0.15;;;;;;;16.35;64.07;102031.66;4932636;29;19914;-91
2021/09/04 02:52:12;;;;;;;0.10;0.10;;;;;;;16.33;64.09;102028.16;4902372;28;20049;-92
2021/09/04 02:55:37;;;;;;;0.10;0.10;;;;;;;16.39;64.35;102022.63;4957193;28;20489;-91
2021/09/04 02:58:52;;;;;;;0.43;0.43;;;;;;;16.03;65.18;102025.31;4918883;28;20054;-91
2021/09/04 03:02:22;;;;;;;1.48;1.48;;;;;;;16.03;65.23;102019.97;4943226;29;20399;-91
2021/09/04 03:05:35;;;;;;;0.75;0.75;;;;;;;15.98;65.40;102017.41;4881220;28;20513;-92
2021/09/04 03:08:14;;;;;;;0.10;0.10;;;;;;;16.15;64.75;102022.34;4976286;28;20043;-92
2021/09/04 03:11:11;;;;;;;0.10;0.10;;;;;;;16.29;64.47;102026.47;4976488;28;20061;-91
2021/09/04 03:14:14;;;;;;;1.15;0.32;;;;;;;16.01;65.49;102027.13;4960671;28;20065;-92
2021/09/04 03:18:15;;;;;;;0.10;0.10;;;;;;;15.98;65.03;102032.56;4973479;28;20047;-92
2021/09/04 03:20:49;;;;;;;0.20;0.20;;;;;;;15.92;65.22;102028.22;4937321;28;20039;-91
2021/09/04 03:23:59;;;;;;;1.15;1.15;;;;;;;15.90;65.28;102030.06;4976474;28;20118;-92
2021/09/04 03:27:09;;;;;;;0.10;0.10;;;;;;;15.86;65.49;102028.38;4942413;28;20047;-92
2021/09/04 03:30:14;;;;;;;0.25;0.22;;;;;;;15.99;64.94;102024.50;4974930;28;20125;-92
2021/09/04 03:33:09;;;;;;;0.85;0.47;;;;;;;16.11;64.68;102023.34;4975113;28;20038;-91
2021/09/04 03:35:45;;;;;;;0.82;0.60;;;;;;;16.11;64.81;102026.00;4975929;28;20027;-91
2021/09/04 03:38:28;;;;;;;;;;;;;;;;;;;;;
2021/09/04 03:41:07;;;;;;;0.10;0.10;;;;;;;16.21;64.87;102032.00;4974504;28;20038;-90
2021/09/04 03:43:49;;;;;;;0.13;0.13;;;;;;;16.27;65.55;102034.50;4975721;28;20038;-92
2021/09/04 03:47:10;;;;;;;0.10;0.10;;;;;;;16.36;65.30;102025.38;4975047;28;20078;-91
2021/09/04 03:49:59;;;;;;;0.10;0.10;;;;;;;16.40;65.33;102018.16;4974915;28;20285;-91
2021/09/04 03:52:30;;;;;;;2.30;1.55;;;;;;;16.49;65.55;102018.81;4972713;28;20041;-92
2021/09/04 03:55:42;;;;;;;2.33;1.23;;;;;;;16.62;64.71;102023.84;4975358;28;20033;-91
2021/09/04 03:58:14;;;;;;;0.93;0.25;;;;;;;16.61;65.01;102025.66;4934230;28;20043;-91
2021/09/04 04:01:09;;;;;;;0.50;0.50;;;;;;;16.75;64.85;102030.63;4935257;29;20035;-91
2021/09/04 04:03:50;;;;;;;1.65;1.55;;;;;;;16.75;65.05;102025.28;4919364;29;20051;-92
2021/09/04 04:06:57;;;;;;;0.65;0.52;;;;;;;16.90;64.64;102025.78;4930720;29;20062;-91
2021/09/04 04:09:34;;;;;;;3.53;1.88;;;;;;;16.92;64.66;102031.97;4967717;28;20050;-91
2021/09/04 04:12:51;;;;;;;0.43;0.43;;;;;;;16.91;64.95;102027.50;4975209;28;20039;-91
2021/09/04 04:15:52;;;;;;;0.30;0.30;;;;;;;17.01;64.61;102029.06;4974529;28;20359;-92
2021/09/04 04:18:33;;;;;;;1.50;1.45;;;;;;;17.01;65.08;102026.38;4973612;28;20046;-92
2021/09/04 04:21:49;;;;;;;0.38;0.38;;;;;;;16.99;64.87;102022.88;4974930;28;20042;-93
2021/09/04 04:25:31;;;;;;;;;;;;;;;;;;;;;
2021/09/04 04:27:55;;;;;;;0.10;0.10;;;;;;;16.99;65.46;102022.88;4954335;28;20450;-92
2021/09/04 04:31:44;;;;;;;;;;;;;;;;;;;;;
2021/09/04 04:41:21;;;;;;;0.17;0.17;;;;;;;16.90;66.19;102023.97;5215090;23;20068;-92
2021/09/04 04:48:19;;;;;;;0.10;0.10;;;;;;;17.25;65.10;102026.59;4989980;28;20375;-92
2021/09/04 04:51:45;;;;;;;0.80;0.40;;;;;;;17.06;65.91;102029.81;4954490;28;20077;-91
2021/09/04 04:55:10;;;;;;;0.00;0.00;;;;;;;17.05;66.05;102022.69;4968067;28;20045;-92
2021/09/04 04:58:16;;;;;;;0.20;0.20;;;;;;;17.36;64.84;102029.84;4944358;29;20111;-92
2021/09/04 05:00:56;;;;;;;1.85;1.10;;;;;;;17.27;65.53;102033.66;4923662;29;20507;-92
2021/09/04 05:05:09;;;;;;;4.78;1.60;;;;;;;17.39;64.77;102043.13;4970137;28;20066;-92
2021/09/04 05:07:38;;;;;;;0.10;0.10;;;;;;;17.50;64.58;102041.97;4946230;29;20035;-92
2021/09/04 05:10:25;;;;;;;3.17;1.42;;;;;;;17.42;64.92;102037.69;4954111;28;20062;-92
2021/09/04 05:13:34;;;;;;;0.35;0.35;;;;;;;17.53;64.71;102039.16;4972663;28;20039;-92
2021/09/04 05:19:33;;;;;;;0.82;0.82;;;;;;;17.45;65.19;102047.44;4995129;23;20092;-95
2021/09/04 05:22:00;;;;;;;0.17;0.17;;;;;;;17.49;64.84;102053.59;5013650;28;20040;-92
2021/09/04 05:24:26;;;;;;;0.13;0.13;;;;;;;17.52;64.55;102051.72;5014141;28;20034;-92
2021/09/04 05:26:52;;;;;;;0.47;0.47;;;;;;;17.55;64.64;102058.78;5014011;28;20034;-91
2021/09/04 05:29:19;;;;;;;0.47;0.47;;;;;;;17.55;64.78;102056.97;5013704;28;20101;-93
2021/09/04 05:31:45;;;;;;;0.15;0.15;;;;;;;17.58;64.47;102053.31;5013322;28;20030;-84
2021/09/04 05:34:11;;;;;;;0.28;0.28;;;;;;;17.62;64.49;102050.50;5013256;28;20030;-84
2021/09/04 05:36:37;;;;;;;0.60;0.60;;;;;;;17.69;64.56;102056.53;5013742;28;20060;-84
2021/09/04 05:39:03;;;;;;;0.68;0.68;;;;;;;17.70;64.69;102052.94;5013288;28;20030;-87
2021/09/04 05:41:29;;;;;;;0.47;0.47;;;;;;;17.77;64.38;102054.50;5013223;28;20029;-84
2021/09/04 05:43:55;;;;;;;0.15;0.15;;;;;;;17.79;64.08;102047.31;5013572;28;20083;-84
2021/09/04 05:46:22;;;;;;;0.15;0.15;;;;;;;17.79;64.52;102052.66;5013335;28;20492;-85
2021/09/04 05:48:48;;;;;;;0.10;0.10;;;;;;;17.81;64.45;102049.94;5015255;28;20038;-84
2021/09/04 05:51:14;;;;;;;0.25;0.25;;;;;;;17.64;64.99;102045.09;5018623;28;20045;-86
2021/09/04 05:53:41;;;;;;;0.85;0.85;;;;;;;17.60;65.04;102051.47;5017047;28;20022;-84
2021/09/04 05:56:08;;;;;;;0.10;0.10;;;;;;;17.61;65.00;102058.59;5017224;28;20485;-84
2021/09/04 05:58:34;;;;;;;0.40;0.40;;;;;;;17.61;65.28;102051.41;5017048;28;20026;-85
2021/09/04 06:01:01;;;;;;;0.57;0.57;;;;;;;17.63;65.05;102046.00;5016033;28;20535;-86
2021/09/04 06:03:28;;;;;;;0.30;0.30;;;;;;;17.60;65.42;102046.97;5016154;28;20465;-85
2021/09/04 06:05:57;;;;;;;0.52;0.52;;;;;;;17.70;64.99;102052.06;5017209;28;20038;-88
2021/09/04 06:08:23;;;;;;;0.55;0.55;;;;;;;17.71;65.17;102052.00;5016992;28;20022;-94
2021/09/04 06:10:53;;;;;;;0.20;0.20;;;;;;;17.77;64.88;102057.19;5017243;28;20033;-89
2021/09/04 06:13:20;;;;;;;0.10;0.10;;;;;;;17.81;65.00;102043.69;5017518;28;20030;-90
2021/09/04 06:15:47;;;;;;;0.90;0.52;;;;;;;17.82;64.91;102046.34;5015848;28;20030;-93
2021/09/04 06:18:13;;;;;;;0.20;0.20;;;;;;;17.90;64.60;102052.31;5016987;28;20088;-91
2021/09/04 06:20:40;;;;;;;0.40;0.40;;;;;;;17.91;64.69;102048.72;5016936;28;20061;-92
2021/09/04 06:23:07;;;;;;;0.82;0.82;;;;;;;17.94;64.56;102042.41;5016671;28;20473;-92
2021/09/04 06:25:34;;;;;;;0.80;0.80;;;;;;;17.95;64.54;102052.22;5015543;28;20029;-91
2021/09/04 06:28:00;;;;;;;1.92;1.30;;;;;;;17.98;64.62;102057.50;5016647;28;20354;-92
2021/09/04 06:30:26;;;;;;;0.40;0.40;;;;;;;18.03;64.54;102055.53;5016082;28;20038;-88
2021/09/04 06:32:53;;;;;;;0.77;0.77;;;;;;;18.05;64.32;102053.66;5016728;28;20029;-92
2021/09/04 06:35:19;;;;;;;0.45;0.45;;;;;;;18.11;64.02;102058.81;5016029;28;20393;-89
2021/09/04 06:37:50;;;;;;;4.60;2.00;;;;;;;18.15;64.07;102058.75;5015712;28;20521;-88
2021/09/04 06:40:16;;;;;;;2.90;1.00;;;;;;;18.13;64.22;102060.59;5016020;28;20046;-91
2021/09/04 06:42:42;;;;;;;0.65;0.65;;;;;;;18.22;63.82;102054.94;5016747;28;20109;-93
2021/09/04 06:45:09;;;;;;;1.08;0.57;;;;;;;18.29;63.73;102048.41;5015991;28;20034;-89
2021/09/04 06:47:41;;;;;;;0.20;0.20;;;;;;;18.34;63.80;102059.00;5014264;28;20160;-92
2021/09/04 06:50:07;;;;;;;;;;;;;;;18.48;62.64;102054.06;5012222;28;20049;-93
2021/09/04 06:52:34;;;;;;;0.10;0.10;;;;;;;18.39;62.87;102055.25;5009680;28;19975;-93
2021/09/04 06:55:00;;;;;;;0.63;0.63;;;;;;;18.46;63.09;102055.03;5015220;28;20037;-92
2021/09/04 06:57:27;;;;;;;0.30;0.30;;;;;;;18.44;63.04;102060.44;5015234;28;20046;-85
2021/09/04 06:59:55;;;;;;;0.50;0.50;;;;;;;18.48;62.61;102069.28;5015376;28;20121;-91
2021/09/04 07:02:24;;;;;;;1.33;1.30;;;;;;;18.50;62.70;102073.66;5016494;28;20030;-91
2021/09/04 07:04:51;;;;;;;0.10;0.10;;;;;;;18.53;61.85;102070.88;5019057;28;20037;-88
2021/09/04 07:07:17;;;;;;;0.63;0.63;;;;;;;18.56;62.15;102069.91;5015911;28;20037;-91
2021/09/04 07:09:43;;;;;;;0.30;0.30;;;;;;;18.55;61.37;102065.47;5016296;28;20096;-94
2021/09/04 07:12:09;;;;;;;0.30;0.30;;;;;;;18.57;62.01;102071.66;5015693;28;20037;-94
2021/09/04 07:14:36;;;;;;;1.75;0.90;;;;;;;18.58;62.59;102058.19;5015090;28;20044;-90
2021/09/04 07:17:02;;;;;;;0.22;0.22;;;;;;;18.66;61.75;102055.22;5015621;28;20037;-93
2021/09/04 07:19:28;;;;;;;0.10;0.10;;;;;;;18.73;62.24;102062.13;5016006;28;20046;-95
2021/09/04 07:21:54;;;;;;;0.10;0.10;;;;;;;18.69;60.98;102076.59;5015820;28;20492;-91
2021/09/04 07:24:20;;;;;;;0.10;0.10;;;;;;;18.78;61.50;102066.47;5016626;28;20029;-93
2021/09/04 07:26:46;;;;;;;0.15;0.15;;;;;;;18.75;61.18;102071.03;5015600;28;20100;-93
2021/09/04 07:29:13;;;;;;;0.90;0.30;;;;;;;18.82;61.44;102073.50;5018588;28;20057;-96
2021/09/04 07:31:39;;;;;;;0.75;0.75;;;;;;;18.85;60.59;102066.19;5019368;28;20026;-96
2021/09/04 07:34:07;;;;;;;1.08;1.08;;;;;;;18.91;61.13;102070.50;5025643;28;20025;-96
2021/09/04 07:36:33;;;;;;;0.17;0.17;;;;;;;18.94;60.47;102070.41;5021863;28;20029;-96
2021/09/04 07:38:59;;;;;;;1.42;0.95;;;;;;;18.96;59.91;102065.84;5021564;28;20036;-96
2021/09/04 07:41:27;;;;;;;0.35;0.35;;;;;;;19.05;59.57;102072.69;5024481;28;20032;-94
2021/09/04 07:43:53;;;;;;;0.55;0.52;;;;;;;19.10;59.98;102075.22;5016872;28;20049;-96
2021/09/04 07:46:19;;;;;;;1.00;1.00;;;;;;;19.20;59.51;102082.00;5017300;28;20547;-96
2021/09/04 07:48:46;;;;;;;0.10;0.10;;;;;;;19.27;60.28;102085.38;5024734;28;20026;-96
2021/09/04 07:51:12;;;;;;;0.17;0.17;;;;;;;19.37;59.93;102071.50;5017829;28;20167;-94
2021/09/04 07:53:58;;;;;;;0.45;0.45;;;;;;;19.50;58.71;102076.41;5015188;28;20432;-96
2021/09/04 08:01:32;;;;;;;0.10;0.10;;;;;;;19.49;58.20;102074.66;5021722;28;20046;-92
2021/09/04 08:03:58;;;;;;;0.40;0.40;;;;;;;19.50;58.85;102076.41;5034801;28;20057;-93
2021/09/04 08:06:24;;;;;;;0.35;0.35;;;;;;;19.56;58.88;102076.19;5029507;28;20488;-92
2021/09/04 08:08:50;;;;;;;0.10;0.10;;;;;;;19.48;58.42;102071.09;5018397;28;20042;-92
2021/09/04 08:11:18;;;;;;;0.68;0.68;;;;;;;19.59;58.03;102075.19;5013826;28;20041;-91
2021/09/04 08:13:44;;;;;;;5.07;1.27;;;;;;;19.71;58.22;102072.03;5014493;28;20022;-92
2021/09/04 08:16:10;;;;;;;3.60;1.35;;;;;;;19.77;58.33;102082.53;5014217;28;20025;-91
2021/09/04 08:18:37;;;;;;;0.22;0.22;;;;;;;19.79;57.64;102080.69;5014314;28;20026;-91
2021/09/04 08:21:03;;;;;;;1.02;0.95;;;;;;;19.83;57.49;102076.09;5013679;28;20045;-90
2021/09/04 08:23:29;;;;;;;0.20;0.20;;;;;;;19.89;57.83;102078.53;5014808;28;20374;-92
2021/09/04 08:25:55;;;;;;;0.30;0.30;;;;;;;19.96;57.46;102079.16;5014772;28;20115;-90
2021/09/04 08:28:21;;;;;;;2.10;1.45;;;;;;;20.07;56.39;102082.31;5014299;28;20032;-91
2021/09/04 08:30:48;;;;;;;0.10;0.10;;;;;;;19.97;56.71;102084.47;5013927;28;20028;-90
2021/09/04 08:33:15;;;;;;;2.35;0.52;;;;;;;19.97;56.95;102089.84;5014172;28;20397;-92
2021/09/04 08:35:41;;;;;;;0.75;0.75;;;;;;;20.05;56.78;102078.81;5013709;28;20026;-89
2021/09/04 08:38:07;;;;;;;0.15;0.15;;;;;;;20.08;57.18;102085.88;5013799;28;20113;-92
2021/09/04 08:40:40;;;;;;;0.50;0.50;;;;;;;20.19;57.12;102087.19;5014465;28;20034;-93
2021/09/04 08:43:07;;;;;;;0.70;0.68;;;;;;;20.23;57.23;102089.75;5013971;28;20040;-93
2021/09/04 08:45:33;;;;;;;0.10;0.10;;;;;;;20.28;56.90;102085.94;5013920;28;20029;-92
2021/09/04 08:48:01;;;;;;;7.80;1.67;;;;;;;20.36;55.89;102091.00;5013656;28;20030;-93
2021/09/04 08:50:28;;;;;;;0.75;0.45;;;;;;;20.37;56.07;102087.38;5013683;28;20022;-93
2021/09/04 08:52:55;;;;;;;0.10;0.10;;;;;;;20.36;55.65;102081.13;5014036;28;20181;-94
2021/09/04 08:55:23;;;;;;;0.40;0.40;;;;;;;20.19;55.99;102079.09;5013926;28;20053;-94
2021/09/04 08:57:49;;;;;;;0.45;0.45;;;;;;;20.28;56.40;102085.94;5014004;28;20033;-94
2021/09/04 09:00:33;;;;;;;0.57;0.57;;;;;;;20.40;55.57;102086.34;5013469;28;20108;-91
2021/09/04 09:03:00;;;;;;;0.15;0.15;;;;;;;20.35;56.39;102089.25;5013739;28;20397;-93
2021/09/04 09:05:35;;;;;;;1.25;1.13;;;;;;;20.38;55.35;102089.13;5013735;28;20021;-93
2021/09/04 09:08:02;;;;;;;0.20;0.20;;;;;;;20.56;55.32;102092.88;5013931;28;20041;-94
2021/09/04 09:10:31;;;;;;;0.30;0.30;;;;;;;20.69;55.90;102093.22;5013776;28;20030;-94
2021/09/04 09:13:16;;;;;;;0.52;0.35;;;;;;;20.81;55.14;102097.22;5014373;28;20045;-93
2021/09/04 09:15:42;;;;;;;0.35;0.35;;;;;;;20.85;55.25;102093.47;5013757;28;20392;-95
2021/09/04 09:18:12;;;;;;;0.10;0.10;;;;;;;20.96;54.27;102091.19;5013681;28;20049;-93
2021/09/04 09:20:42;;;;;;;0.35;0.35;;;;;;;21.04;54.15;102103.44;5012639;28;20018;-93
2021/09/04 09:23:13;;;;;;;0.45;0.45;;;;;;;21.13;54.43;102095.81;5016537;28;20118;-92
2021/09/04 09:25:42;;;;;;;0.80;0.47;;;;;;;21.04;54.15;102092.66;5017486;28;20100;-94
2021/09/04 09:28:17;;;;;;;1.05;0.95;;;;;;;21.15;54.83;102090.34;5019251;28;20026;-95
2021/09/04 09:30:47;;;;;;;0.10;0.10;;;;;;;21.22;54.93;102094.53;5018143;28;20037;-86
2021/09/04 09:33:17;;;;;;;1.50;1.40;;;;;;;21.40;54.23;102091.94;5018016;28;20026;-94
2021/09/04 09:35:46;;;;;;;0.30;0.30;;;;;;;21.55;54.34;102082.28;5019501;28;20062;-95
2021/09/04 09:38:14;;;;;;;0.30;0.30;;;;;;;21.56;52.91;102067.84;5019302;28;20033;-96
2021/09/04 09:40:41;;;;;;;0.20;0.20;;;;;;;21.67;52.69;102070.03;5019808;28;20030;-96
2021/09/04 09:48:37;;;;;;;0.52;0.52;;;;;;;21.80;52.98;102066.69;5086151;28;20414;-94
2021/09/04 09:51:07;;;;;;;1.67;1.00;;;;;;;21.89;52.72;102062.66;5081425;28;20025;-84
2021/09/04 09:53:58;;;;;;;0.45;0.45;;;;;;;22.00;52.65;102058.59;5094979;28;20021;-83
2021/09/04 09:56:25;;;;;;;0.93;0.93;;;;;;;21.95;52.71;102059.66;5070538;28;20053;-86
2021/09/04 09:58:51;;;;;;;0.40;0.40;;;;;;;22.01;51.88;102061.22;5075373;28;20036;-90
2021/09/04 10:01:18;;;;;;;0.45;0.40;;;;;;;22.16;51.88;102064.09;5084304;28;20025;-82
2021/09/04 10:03:49;;;;;;;0.10;0.10;;;;;;;22.13;51.54;102057.00;5079561;28;20052;-82
2021/09/04 10:06:18;;;;;;;0.60;0.60;;;;;;;22.25;51.38;102059.09;5083163;28;20012;-81
2021/09/04 10:08:47;;;;;;;1.73;1.17;;;;;;;22.33;51.47;102057.84;5081918;28;20051;-82
2021/09/04 10:11:13;;;;;;;0.10;0.10;;;;;;;22.35;51.33;102058.66;5098568;28;20120;-82
2021/09/04 10:13:43;;;;;;;0.30;0.30;;;;;;;22.34;51.17;102065.00;5081922;28;20048;-81
2021/09/04 10:16:11;;;;;;;0.80;0.80;;;;;;;22.42;51.65;102069.09;5083489;28;20051;-82
2021/09/04 10:18:42;;;;;;;0.43;0.43;;;;;;;22.40;51.36;102064.72;5080964;28;20025;-81
2021/09/04 10:21:13;;;;;;;0.68;0.68;;;;;;;22.44;51.39;102060.91;5084767;28;20067;-81
2021/09/04 10:23:51;;;;;;;1.13;1.13;;;;;;;22.50;51.05;102060.59;5092090;28;20036;-81
2021/09/04 10:32:18;;;;;;;4.95;0.52;;;;;;;22.70;50.91;102042.50;4608819;27;15051591;-84
2021/09/04 10:35:03;;;;;;;0.77;0.77;;;;;;;22.75;49.99;102044.00;5140653;28;20028;-84
2021/09/04 10:37:30;;;;;;;0.75;0.75;;;;;;;22.71;50.46;102038.84;5123715;28;20564;-89
2021/09/04 10:40:07;;;;;;;0.30;0.30;;;;;;;22.71;50.97;102044.25;5119512;28;20032;-87
2021/09/04 10:42:36;;;;;;;0.20;0.20;;;;;;;22.64;50.18;102035.56;5116913;28;20368;-91
2021/09/04 10:45:15;;;;;;;1.15;1.05;;;;;;;22.77;50.95;102041.22;5115949;28;20032;-91
2021/09/04 10:50:32;;;;;;;0.73;0.65;;;;;;;23.11;50.50;102025.91;5092821;27;20422;-90
2021/09/04 10:53:05;;;;;;;0.22;0.22;;;;;;;23.13;51.08;102026.69;5095420;28;20032;-96
2021/09/04 10:55:35;;;;;;;1.25;1.08;;;;;;;23.26;50.05;102027.81;5097275;28;20035;-94
2021/09/04 10:58:18;;;;;;;1.15;0.75;;;;;;;23.46;49.68;102020.41;5095253;28;20032;-96
2021/09/04 11:00:47;;;;;;;0.15;0.15;;;;;;;23.39;48.32;102033.41;5084270;28;20027;-91
2021/09/04 11:03:14;;;;;;;0.43;0.43;;;;;;;23.50;49.47;102034.63;5079544;28;20464;-96
2021/09/04 11:11:28;;;;;;;0.10;0.10;;;;;;;23.67;48.93;102028.28;5061877;28;20402;-94
2021/09/04 11:17:17;;;;;;;0.50;0.50;;;;;;;23.80;48.59;102026.63;5070892;28;20393;-95
2021/09/04 11:19:51;;;;;;;0.10;0.10;;;;;;;23.89;49.35;102022.50;5054895;28;20040;-96
2021/09/04 11:22:18;;;;;;;0.55;0.55;;;;;;;23.96;48.92;102026.63;5048089;28;20080;-96
2021/09/04 11:24:47;;;;;;;0.50;0.50;;;;;;;24.09;48.24;102015.06;5040530;28;20033;-95
2021/09/04 11:27:19;;;;;;;0.90;0.90;;;;;;;24.21;48.82;102025.19;5042451;28;20025;-96
2021/09/04 11:29:49;;;;;;;0.50;0.50;;;;;;;24.28;48.17;102014.88;5039714;28;20025;-95
2021/09/04 11:32:17;;;;;;;0.32;0.32;;;;;;;24.35;47.55;102013.53;5039207;28;20032;-96
2021/09/04 11:37:30;;;;;;;0.55;0.55;;;;;;;24.44;48.00;102014.84;5112350;27;20923;-95
2021/09/04 11:42:41;;;;;;;0.10;0.10;;;;;;;24.45;47.70;102012.03;5082835;27;20413;-96
2021/09/04 11:47:53;;;;;;;0.10;0.10;;;;;;;24.48;46.72;102005.56;5070951;28;20901;-95
2021/09/04 11:50:26;;;;;;;1.45;0.75;;;;;;;24.54;47.38;101999.75;5058851;28;20055;-95
2021/09/04 11:52:53;;;;;;;0.17;0.17;;;;;;;24.54;46.79;102000.63;5059562;28;20044;-96
2021/09/04 11:58:01;;;;;;;0.10;0.10;;;;;;;24.67;46.55;101989.06;5086176;27;20445;-92
2021/09/04 12:00:31;;;;;;;0.65;0.55;;;;;;;24.79;46.94;101993.72;5060262;28;20029;-85
2021/09/04 12:03:03;;;;;;;0.50;0.50;;;;;;;24.85;48.01;101989.78;5059955;28;20025;-84
2021/09/04 12:05:31;;;;;;;1.13;0.68;;;;;;;24.95;47.00;101990.03;5068518;28;20471;-89
2021/09/04 12:08:06;;;;;;;1.00;0.82;;;;;;;25.14;45.88;101985.19;5059509;28;20029;-94
2021/09/04 12:10:35;;;;;;;0.10;0.10;;;;;;;25.19;46.25;101983.06;5060274;28;20033;-83
2021/09/04 12:13:05;;;;;;;0.32;0.30;;;;;;;25.21;46.12;101980.28;5061814;28;20063;-82
2021/09/04 12:15:32;;;;;;;1.25;1.25;;;;;;;25.30;46.15;101986.94;5060373;28;20361;-83
2021/09/04 12:20:58;;;;;;;0.55;0.55;;;;;;;25.44;45.51;101989.66;5061536;28;20749;-83
2021/09/04 12:23:27;;;;;;;4.38;1.10;;;;;;;25.56;45.80;101987.09;5054352;28;20484;-83
2021/09/04 12:26:09;;;;;;;5.95;0.70;;;;;;;25.68;45.74;101983.59;5050981;28;20496;-82
2021/09/04 12:28:35;;;;;;;;;;;;;;;25.90;44.40;101980.31;5044921;28;20369;-87
2021/09/04 12:31:06;;;;;;;0.75;0.75;;;;;;;25.85;45.00;101977.03;5030955;28;19999;-82
2021/09/04 12:33:52;;;;;;;0.85;0.85;;;;;;;25.93;44.15;101976.50;5031023;28;20405;-84
2021/09/04 12:39:24;;;;;;;0.25;0.25;;;;;;;26.07;45.38;101981.94;5058018;28;20416;-82
2021/09/04 12:42:10;;;;;;;3.72;0.85;;;;;;;26.31;44.95;101978.50;5050290;28;20108;-85
2021/09/04 12:47:48;;;;;;;1.35;0.85;;;;;;;26.17;44.33;101971.31;5075692;28;20912;-96
2021/09/04 12:50:24;;;;;;;1.42;1.33;;;;;;;26.36;44.74;101970.03;5092017;22;20114;-90
2021/09/04 12:53:06;;;;;;;0.98;0.98;;;;;;;26.37;43.21;101974.47;5070300;28;20099;-86
2021/09/04 12:55:54;;;;;;;1.27;1.17;;;;;;;26.40;43.02;101969.69;5070776;28;20029;-87
2021/09/04 12:58:21;;;;;;;0.70;0.70;;;;;;;26.41;44.67;101973.31;5071716;28;20026;-88
2021/09/04 13:00:47;;;;;;;0.10;0.10;;;;;;;26.48;44.23;101974.59;5058452;28;20037;-87
2021/09/04 13:03:13;;;;;;;0.25;0.25;;;;;;;26.52;43.69;101967.09;5052638;28;20037;-87
2021/09/04 13:05:39;;;;;;;0.10;0.10;;;;;;;26.66;43.22;101975.16;5051064;28;20087;-87
2021/09/04 13:08:06;;;;;;;0.52;0.52;;;;;;;26.61;43.74;101972.75;5049787;28;20029;-88
2021/09/04 13:10:33;;;;;;;0.40;0.40;;;;;;;26.76;43.94;101970.84;5049328;28;20052;-87
2021/09/04 13:13:00;;;;;;;0.10;0.10;;;;;;;26.89;42.38;101957.25;5049868;28;20036;-88
2021/09/04 13:15:26;;;;;;;0.20;0.20;;;;;;;26.99;43.41;101954.72;5050849;28;20497;-88
2021/09/04 13:17:54;;;;;;;0.73;0.73;;;;;;;27.09;43.29;101957.63;5052204;28;20033;-90